sensor_id;sensor_type;location;lat;lon;timestamp;temperature;humidity
3944;DHT22;1986;52.546;13.428;2022-11-21T00:00:50;-0.90;99.90
3944;DHT22;1986;52.546;13.428;2022-11-21T00:03:18;-0.90;99.90
3944;DHT22;1986;52.546;13.428;2022-11-21T00:05:48;-0.80;99.90
3944;DHT22;1986;52.546;13.428;2022-11-21T00:08:16;-0.70;99.90
3944;DHT22;1986;52.546;13.428;2022-11-21T00:10:45;-0.70;99.90
3944;DHT22;1986;52.546;13.428;2022-11-21T00:13:15;-0.70;99.90
3944;DHT22;1986;52.546;13.428;2022-11-21T00:15:42;-0.70;99.90
3944;DHT22;1986;52.546;13.428;2022-11-21T00:18:09;-0.70;99.90
3944;DHT22;1986;52.546;13.428;2022-11-21T00:20:37;-0.60;99.90
3944;DHT22;1986;52.546;13.428;2022-11-21T00:23:04;-0.60;99.90
3944;DHT22;1986;52.546;13.428;2022-11-21T00:25:31;-0.60;99.90
3944;DHT22;1986;52.546;13.428;2022-11-21T00:28:01;-0.60;99.90
3944;DHT22;1986;52.546;13.428;2022-11-21T00:30:30;-0.60;99.90
3944;DHT22;1986;52.546;13.428;2022-11-21T00:32:57;-0.60;99.90
3944;DHT22;1986;52.546;13.428;2022-11-21T00:35:24;-0.60;99.90
3944;DHT22;1986;52.546;13.428;2022-11-21T00:37:51;-0.50;99.90
3944;DHT22;1986;52.546;13.428;2022-11-21T00:40:21;-0.70;99.90
3944;DHT22;1986;52.546;13.428;2022-11-21T00:42:48;-0.70;99.90
3944;DHT22;1986;52.546;13.428;2022-11-21T00:45:16;-0.70;99.90
3944;DHT22;1986;52.546;13.428;2022-11-21T00:47:43;-0.70;99.90
3944;DHT22;1986;52.546;13.428;2022-11-21T00:50:13;-0.70;99.90
3944;DHT22;1986;52.546;13.428;2022-11-21T00:52:41;-0.70;99.90
3944;DHT22;1986;52.546;13.428;2022-11-21T00:55:10;-0.70;99.90
3944;DHT22;1986;52.546;13.428;2022-11-21T00:57:41;-0.70;99.90
3944;DHT22;1986;52.546;13.428;2022-11-21T01:00:09;-0.60;99.90
3944;DHT22;1986;52.546;13.428;2022-11-21T01:02:37;-0.60;99.90
3944;DHT22;1986;52.546;13.428;2022-11-21T01:05:07;-0.50;99.90
3944;DHT22;1986;52.546;13.428;2022-11-21T01:07:35;-0.60;99.90
3944;DHT22;1986;52.546;13.428;2022-11-21T01:10:02;-0.60;99.90
3944;DHT22;1986;52.546;13.428;2022-11-21T01:12:30;-0.60;99.90
3944;DHT22;1986;52.546;13.428;2022-11-21T01:14:58;-0.60;99.90
3944;DHT22;1986;52.546;13.428;2022-11-21T01:17:27;-0.60;99.90
3944;DHT22;1986;52.546;13.428;2022-11-21T01:19:55;-0.60;99.90
3944;DHT22;1986;52.546;13.428;2022-11-21T01:22:22;-0.60;99.90
3944;DHT22;1986;52.546;13.428;2022-11-21T01:24:50;-0.60;99.90
3944;DHT22;1986;52.546;13.428;2022-11-21T01:27:17;-0.50;99.90
3944;DHT22;1986;52.546;13.428;2022-11-21T01:29:44;-0.50;99.90
3944;DHT22;1986;52.546;13.428;2022-11-21T01:32:11;-0.60;99.90
3944;DHT22;1986;52.546;13.428;2022-11-21T01:34:38;-0.70;99.90
3944;DHT22;1986;52.546;13.428;2022-11-21T01:37:06;-0.70;99.90
3944;DHT22;1986;52.546;13.428;2022-11-21T01:39:35;-0.70;99.90
3944;DHT22;1986;52.546;13.428;2022-11-21T01:42:02;-0.70;99.90
3944;DHT22;1986;52.546;13.428;2022-11-21T01:44:46;-0.70;99.90
3944;DHT22;1986;52.546;13.428;2022-11-21T01:47:13;-0.80;99.90
3944;DHT22;1986;52.546;13.428;2022-11-21T01:49:41;-0.70;99.90
3944;DHT22;1986;52.546;13.428;2022-11-21T01:52:12;-0.70;99.90
3944;DHT22;1986;52.546;13.428;2022-11-21T01:54:47;-0.70;99.90
3944;DHT22;1986;52.546;13.428;2022-11-21T01:57:18;-0.80;99.90
3944;DHT22;1986;52.546;13.428;2022-11-21T01:59:48;-0.70;99.90
3944;DHT22;1986;52.546;13.428;2022-11-21T02:02:18;-0.70;99.90
3944;DHT22;1986;52.546;13.428;2022-11-21T02:04:46;-0.80;99.90
3944;DHT22;1986;52.546;13.428;2022-11-21T02:07:17;-0.80;99.90
3944;DHT22;1986;52.546;13.428;2022-11-21T02:09:47;-0.80;99.90
3944;DHT22;1986;52.546;13.428;2022-11-21T02:12:20;-0.90;99.90
3944;DHT22;1986;52.546;13.428;2022-11-21T02:14:49;-1.00;99.90
3944;DHT22;1986;52.546;13.428;2022-11-21T02:17:18;-0.90;99.90
3944;DHT22;1986;52.546;13.428;2022-11-21T02:19:51;-0.90;99.90
3944;DHT22;1986;52.546;13.428;2022-11-21T02:22:27;-0.90;99.90
3944;DHT22;1986;52.546;13.428;2022-11-21T02:25:03;-1.00;99.90
3944;DHT22;1986;52.546;13.428;2022-11-21T02:27:31;-0.90;99.90
3944;DHT22;1986;52.546;13.428;2022-11-21T02:29:59;-0.90;99.90
3944;DHT22;1986;52.546;13.428;2022-11-21T02:32:33;-0.90;99.90
3944;DHT22;1986;52.546;13.428;2022-11-21T02:35:01;-0.90;99.90
3944;DHT22;1986;52.546;13.428;2022-11-21T02:37:28;-0.90;99.90
3944;DHT22;1986;52.546;13.428;2022-11-21T02:39:59;-0.90;99.90
3944;DHT22;1986;52.546;13.428;2022-11-21T02:42:32;-0.80;99.90
3944;DHT22;1986;52.546;13.428;2022-11-21T02:45:05;-0.90;99.90
3944;DHT22;1986;52.546;13.428;2022-11-21T02:47:38;-0.90;99.90
3944;DHT22;1986;52.546;13.428;2022-11-21T02:50:10;-0.90;99.90
3944;DHT22;1986;52.546;13.428;2022-11-21T02:52:39;-0.90;99.90
3944;DHT22;1986;52.546;13.428;2022-11-21T02:55:06;-0.80;99.90
3944;DHT22;1986;52.546;13.428;2022-11-21T02:57:35;-0.90;99.90
3944;DHT22;1986;52.546;13.428;2022-11-21T03:00:03;-0.90;99.90
3944;DHT22;1986;52.546;13.428;2022-11-21T03:02:30;-0.90;99.90
3944;DHT22;1986;52.546;13.428;2022-11-21T03:04:57;-0.90;99.90
3944;DHT22;1986;52.546;13.428;2022-11-21T03:07:24;-0.90;99.90
3944;DHT22;1986;52.546;13.428;2022-11-21T03:09:51;-1.00;99.90
3944;DHT22;1986;52.546;13.428;2022-11-21T03:12:18;-1.00;99.90
3944;DHT22;1986;52.546;13.428;2022-11-21T03:14:46;-1.00;99.90
3944;DHT22;1986;52.546;13.428;2022-11-21T03:17:13;-0.90;99.90
3944;DHT22;1986;52.546;13.428;2022-11-21T03:19:40;-0.90;99.90
3944;DHT22;1986;52.546;13.428;2022-11-21T03:22:07;-0.90;99.90
3944;DHT22;1986;52.546;13.428;2022-11-21T03:24:34;-0.90;99.90
3944;DHT22;1986;52.546;13.428;2022-11-21T03:27:01;-0.90;99.90
3944;DHT22;1986;52.546;13.428;2022-11-21T03:29:28;-0.90;99.90
3944;DHT22;1986;52.546;13.428;2022-11-21T03:31:57;-1.00;99.90
3944;DHT22;1986;52.546;13.428;2022-11-21T03:34:24;-1.00;99.90
3944;DHT22;1986;52.546;13.428;2022-11-21T03:36:51;-1.00;99.90
3944;DHT22;1986;52.546;13.428;2022-11-21T03:39:19;-1.00;99.90
3944;DHT22;1986;52.546;13.428;2022-11-21T03:41:46;-1.10;99.90
3944;DHT22;1986;52.546;13.428;2022-11-21T03:44:16;-1.00;99.90
3944;DHT22;1986;52.546;13.428;2022-11-21T03:46:45;-1.00;99.90
3944;DHT22;1986;52.546;13.428;2022-11-21T03:49:14;-1.00;99.90
3944;DHT22;1986;52.546;13.428;2022-11-21T03:51:43;-1.00;99.90
3944;DHT22;1986;52.546;13.428;2022-11-21T03:54:13;-1.10;99.90
3944;DHT22;1986;52.546;13.428;2022-11-21T03:56:42;-1.00;99.90
3944;DHT22;1986;52.546;13.428;2022-11-21T03:59:09;-1.00;99.90
3944;DHT22;1986;52.546;13.428;2022-11-21T04:01:36;-1.10;99.90
3944;DHT22;1986;52.546;13.428;2022-11-21T04:04:04;-1.10;99.90
3944;DHT22;1986;52.546;13.428;2022-11-21T04:06:32;-1.00;99.90
3944;DHT22;1986;52.546;13.428;2022-11-21T04:08:59;-1.00;99.90
3944;DHT22;1986;52.546;13.428;2022-11-21T04:11:26;-1.00;99.90
3944;DHT22;1986;52.546;13.428;2022-11-21T04:13:55;-0.90;99.90
3944;DHT22;1986;52.546;13.428;2022-11-21T04:16:22;-1.00;99.90
3944;DHT22;1986;52.546;13.428;2022-11-21T04:18:49;-1.00;99.90
3944;DHT22;1986;52.546;13.428;2022-11-21T04:21:16;-0.90;99.90
3944;DHT22;1986;52.546;13.428;2022-11-21T04:23:45;-0.90;99.90
3944;DHT22;1986;52.546;13.428;2022-11-21T04:26:11;-0.80;99.90
3944;DHT22;1986;52.546;13.428;2022-11-21T04:28:40;-0.90;99.90
3944;DHT22;1986;52.546;13.428;2022-11-21T04:31:10;-0.90;99.90
3944;DHT22;1986;52.546;13.428;2022-11-21T04:33:37;-0.90;99.90
3944;DHT22;1986;52.546;13.428;2022-11-21T04:36:05;-0.90;99.90
3944;DHT22;1986;52.546;13.428;2022-11-21T04:38:33;-1.00;99.90
3944;DHT22;1986;52.546;13.428;2022-11-21T04:41:02;-1.00;99.90
3944;DHT22;1986;52.546;13.428;2022-11-21T04:43:36;-0.90;99.90
3944;DHT22;1986;52.546;13.428;2022-11-21T04:46:03;-0.90;99.90
3944;DHT22;1986;52.546;13.428;2022-11-21T04:48:30;-0.90;99.90
3944;DHT22;1986;52.546;13.428;2022-11-21T04:50:58;-0.90;99.90
3944;DHT22;1986;52.546;13.428;2022-11-21T04:53:25;-0.90;99.90
3944;DHT22;1986;52.546;13.428;2022-11-21T04:55:52;-0.90;99.90
3944;DHT22;1986;52.546;13.428;2022-11-21T04:58:20;-0.90;99.90
3944;DHT22;1986;52.546;13.428;2022-11-21T05:00:47;-0.80;99.90
3944;DHT22;1986;52.546;13.428;2022-11-21T05:03:16;-0.80;99.90
3944;DHT22;1986;52.546;13.428;2022-11-21T05:05:43;-0.80;99.90
3944;DHT22;1986;52.546;13.428;2022-11-21T05:08:11;-0.80;99.90
3944;DHT22;1986;52.546;13.428;2022-11-21T05:10:42;-0.80;99.90
3944;DHT22;1986;52.546;13.428;2022-11-21T05:13:28;-0.80;99.90
3944;DHT22;1986;52.546;13.428;2022-11-21T05:16:01;-0.80;99.90
3944;DHT22;1986;52.546;13.428;2022-11-21T05:18:28;-0.80;99.90
3944;DHT22;1986;52.546;13.428;2022-11-21T05:20:55;-0.80;99.90
3944;DHT22;1986;52.546;13.428;2022-11-21T05:23:25;-0.80;99.90
3944;DHT22;1986;52.546;13.428;2022-11-21T05:25:51;-0.80;99.90
3944;DHT22;1986;52.546;13.428;2022-11-21T05:28:18;-0.80;99.90
3944;DHT22;1986;52.546;13.428;2022-11-21T05:30:51;-0.70;99.90
3944;DHT22;1986;52.546;13.428;2022-11-21T05:33:19;-0.70;99.90
3944;DHT22;1986;52.546;13.428;2022-11-21T05:35:46;-0.70;99.90
3944;DHT22;1986;52.546;13.428;2022-11-21T05:38:13;-0.80;99.90
3944;DHT22;1986;52.546;13.428;2022-11-21T05:40:40;-0.80;99.90
3944;DHT22;1986;52.546;13.428;2022-11-21T05:43:10;-0.70;99.90
3944;DHT22;1986;52.546;13.428;2022-11-21T05:45:56;-0.70;99.90
3944;DHT22;1986;52.546;13.428;2022-11-21T05:48:24;-0.70;99.90
3944;DHT22;1986;52.546;13.428;2022-11-21T05:50:51;-0.70;99.90
3944;DHT22;1986;52.546;13.428;2022-11-21T05:53:19;-0.70;99.90
3944;DHT22;1986;52.546;13.428;2022-11-21T05:55:50;-0.70;99.90
3944;DHT22;1986;52.546;13.428;2022-11-21T05:58:17;-0.70;99.90
3944;DHT22;1986;52.546;13.428;2022-11-21T06:00:50;-0.70;99.90
3944;DHT22;1986;52.546;13.428;2022-11-21T06:03:24;-0.70;99.90
3944;DHT22;1986;52.546;13.428;2022-11-21T06:06:04;-0.70;99.90
3944;DHT22;1986;52.546;13.428;2022-11-21T06:08:33;-0.70;99.90
3944;DHT22;1986;52.546;13.428;2022-11-21T06:11:03;-0.60;99.90
3944;DHT22;1986;52.546;13.428;2022-11-21T06:13:34;-0.60;99.90
3944;DHT22;1986;52.546;13.428;2022-11-21T06:16:03;-0.60;99.90
3944;DHT22;1986;52.546;13.428;2022-11-21T06:18:34;-0.50;99.90
3944;DHT22;1986;52.546;13.428;2022-11-21T06:21:03;-0.60;99.90
3944;DHT22;1986;52.546;13.428;2022-11-21T06:23:34;-0.50;99.90
3944;DHT22;1986;52.546;13.428;2022-11-21T06:26:02;-0.40;99.90
3944;DHT22;1986;52.546;13.428;2022-11-21T06:28:31;-0.20;99.90
3944;DHT22;1986;52.546;13.428;2022-11-21T06:31:03;-0.20;99.90
3944;DHT22;1986;52.546;13.428;2022-11-21T06:33:30;-0.10;99.90
3944;DHT22;1986;52.546;13.428;2022-11-21T06:36:01;-0.10;99.90
3944;DHT22;1986;52.546;13.428;2022-11-21T06:38:28;-0.10;99.90
3944;DHT22;1986;52.546;13.428;2022-11-21T06:40:55;0.00;99.90
3944;DHT22;1986;52.546;13.428;2022-11-21T06:43:22;0.00;99.90
3944;DHT22;1986;52.546;13.428;2022-11-21T06:45:50;0.00;99.90
3944;DHT22;1986;52.546;13.428;2022-11-21T06:48:17;-0.10;99.90
3944;DHT22;1986;52.546;13.428;2022-11-21T06:50:46;0.00;99.90
3944;DHT22;1986;52.546;13.428;2022-11-21T06:53:16;0.00;99.90
3944;DHT22;1986;52.546;13.428;2022-11-21T06:55:44;0.10;99.90
3944;DHT22;1986;52.546;13.428;2022-11-21T06:58:11;0.00;99.90
3944;DHT22;1986;52.546;13.428;2022-11-21T07:00:40;-0.10;99.90
3944;DHT22;1986;52.546;13.428;2022-11-21T07:03:08;-0.30;99.90
3944;DHT22;1986;52.546;13.428;2022-11-21T07:05:39;-0.30;99.90
3944;DHT22;1986;52.546;13.428;2022-11-21T07:08:07;-0.30;99.90
3944;DHT22;1986;52.546;13.428;2022-11-21T07:10:44;-0.30;99.90
3944;DHT22;1986;52.546;13.428;2022-11-21T07:13:12;-0.40;99.90
3944;DHT22;1986;52.546;13.428;2022-11-21T07:15:58;-0.40;99.90
3944;DHT22;1986;52.546;13.428;2022-11-21T07:18:29;-0.40;99.90
3944;DHT22;1986;52.546;13.428;2022-11-21T07:21:01;-0.40;99.90
3944;DHT22;1986;52.546;13.428;2022-11-21T07:23:30;-0.50;99.90
3944;DHT22;1986;52.546;13.428;2022-11-21T07:26:01;-0.60;99.90
3944;DHT22;1986;52.546;13.428;2022-11-21T07:28:29;-0.60;99.90
3944;DHT22;1986;52.546;13.428;2022-11-21T07:30:59;-0.60;99.90
3944;DHT22;1986;52.546;13.428;2022-11-21T07:33:28;-0.60;99.90
3944;DHT22;1986;52.546;13.428;2022-11-21T07:35:57;-0.60;99.90
3944;DHT22;1986;52.546;13.428;2022-11-21T07:38:25;-0.60;99.90
3944;DHT22;1986;52.546;13.428;2022-11-21T07:40:55;-0.60;99.90
3944;DHT22;1986;52.546;13.428;2022-11-21T07:43:27;-0.60;99.90
3944;DHT22;1986;52.546;13.428;2022-11-21T07:45:55;-0.70;99.90
3944;DHT22;1986;52.546;13.428;2022-11-21T07:48:23;-0.60;99.90
3944;DHT22;1986;52.546;13.428;2022-11-21T07:50:50;-0.50;99.90
3944;DHT22;1986;52.546;13.428;2022-11-21T07:53:19;-0.40;99.90
3944;DHT22;1986;52.546;13.428;2022-11-21T07:55:50;-0.40;99.90
3944;DHT22;1986;52.546;13.428;2022-11-21T07:58:18;-0.40;99.90
3944;DHT22;1986;52.546;13.428;2022-11-21T08:00:48;-0.40;99.90
3944;DHT22;1986;52.546;13.428;2022-11-21T08:03:15;-0.40;99.90
3944;DHT22;1986;52.546;13.428;2022-11-21T08:05:49;-0.30;99.90
3944;DHT22;1986;52.546;13.428;2022-11-21T08:08:17;-0.20;99.90
3944;DHT22;1986;52.546;13.428;2022-11-21T08:10:44;-0.30;99.90
3944;DHT22;1986;52.546;13.428;2022-11-21T08:13:18;-0.20;99.90
3944;DHT22;1986;52.546;13.428;2022-11-21T08:15:52;-0.20;99.90
3944;DHT22;1986;52.546;13.428;2022-11-21T08:18:23;-0.20;99.90
3944;DHT22;1986;52.546;13.428;2022-11-21T08:20:52;-0.10;99.90
3944;DHT22;1986;52.546;13.428;2022-11-21T08:23:19;-0.30;99.90
3944;DHT22;1986;52.546;13.428;2022-11-21T08:25:47;-0.30;99.90
3944;DHT22;1986;52.546;13.428;2022-11-21T08:28:18;-0.40;99.90
3944;DHT22;1986;52.546;13.428;2022-11-21T08:30:48;-0.30;99.90
3944;DHT22;1986;52.546;13.428;2022-11-21T08:33:19;-0.40;99.90
3944;DHT22;1986;52.546;13.428;2022-11-21T08:35:48;-0.40;99.90
3944;DHT22;1986;52.546;13.428;2022-11-21T08:38:14;-0.40;99.90
3944;DHT22;1986;52.546;13.428;2022-11-21T08:40:44;-0.50;99.90
3944;DHT22;1986;52.546;13.428;2022-11-21T08:43:32;-0.50;99.90
3944;DHT22;1986;52.546;13.428;2022-11-21T08:46:02;-0.60;99.90
3944;DHT22;1986;52.546;13.428;2022-11-21T08:48:35;-0.50;99.90
3944;DHT22;1986;52.546;13.428;2022-11-21T08:51:03;-0.50;99.90
3944;DHT22;1986;52.546;13.428;2022-11-21T08:53:34;-0.50;99.90
3944;DHT22;1986;52.546;13.428;2022-11-21T08:56:04;-0.60;99.90
3944;DHT22;1986;52.546;13.428;2022-11-21T08:58:32;-0.60;99.90
3944;DHT22;1986;52.546;13.428;2022-11-21T09:00:59;-0.60;99.90
3944;DHT22;1986;52.546;13.428;2022-11-21T09:03:27;-0.60;99.90
3944;DHT22;1986;52.546;13.428;2022-11-21T09:05:58;-0.50;99.90
3944;DHT22;1986;52.546;13.428;2022-11-21T09:08:28;-0.60;99.90
3944;DHT22;1986;52.546;13.428;2022-11-21T09:10:56;-0.50;99.90
3944;DHT22;1986;52.546;13.428;2022-11-21T09:13:23;-0.40;99.90
3944;DHT22;1986;52.546;13.428;2022-11-21T09:15:51;-0.50;99.90
3944;DHT22;1986;52.546;13.428;2022-11-21T09:18:35;-0.50;99.90
3944;DHT22;1986;52.546;13.428;2022-11-21T09:21:19;-0.40;99.90
3944;DHT22;1986;52.546;13.428;2022-11-21T09:23:50;-0.40;99.90
3944;DHT22;1986;52.546;13.428;2022-11-21T09:26:20;-0.50;99.90
3944;DHT22;1986;52.546;13.428;2022-11-21T09:28:50;-0.60;99.90
3944;DHT22;1986;52.546;13.428;2022-11-21T09:31:25;-0.70;99.90
3944;DHT22;1986;52.546;13.428;2022-11-21T09:34:09;-0.70;99.90
3944;DHT22;1986;52.546;13.428;2022-11-21T09:36:41;-0.70;99.90
3944;DHT22;1986;52.546;13.428;2022-11-21T09:39:10;-0.80;99.90
3944;DHT22;1986;52.546;13.428;2022-11-21T09:41:47;-0.80;99.90
3944;DHT22;1986;52.546;13.428;2022-11-21T09:44:53;-0.80;99.90
3944;DHT22;1986;52.546;13.428;2022-11-21T09:47:40;-1.10;99.90
3944;DHT22;1986;52.546;13.428;2022-11-21T09:50:21;-1.00;99.90
3944;DHT22;1986;52.546;13.428;2022-11-21T09:52:59;-1.00;99.90
3944;DHT22;1986;52.546;13.428;2022-11-21T09:55:45;-1.10;99.90
3944;DHT22;1986;52.546;13.428;2022-11-21T09:58:36;-1.10;99.90
3944;DHT22;1986;52.546;13.428;2022-11-21T10:01:10;-1.20;99.90
3944;DHT22;1986;52.546;13.428;2022-11-21T10:03:53;-1.20;99.90
3944;DHT22;1986;52.546;13.428;2022-11-21T10:06:44;-1.30;99.90
3944;DHT22;1986;52.546;13.428;2022-11-21T10:09:25;-1.30;99.90
3944;DHT22;1986;52.546;13.428;2022-11-21T10:12:05;-1.30;99.90
3944;DHT22;1986;52.546;13.428;2022-11-21T10:15:00;-1.30;99.90
3944;DHT22;1986;52.546;13.428;2022-11-21T10:17:42;-1.30;99.90
3944;DHT22;1986;52.546;13.428;2022-11-21T10:20:40;-1.40;99.90
3944;DHT22;1986;52.546;13.428;2022-11-21T10:23:33;-1.40;99.90
3944;DHT22;1986;52.546;13.428;2022-11-21T10:26:13;-1.30;99.90
3944;DHT22;1986;52.546;13.428;2022-11-21T10:28:46;-1.20;99.90
3944;DHT22;1986;52.546;13.428;2022-11-21T10:31:32;-1.30;99.90
3944;DHT22;1986;52.546;13.428;2022-11-21T10:38:09;-1.20;99.90
3944;DHT22;1986;52.546;13.428;2022-11-21T10:41:02;-1.20;99.90
3944;DHT22;1986;52.546;13.428;2022-11-21T10:43:38;-1.30;99.90
3944;DHT22;1986;52.546;13.428;2022-11-21T10:46:24;-1.30;99.90
3944;DHT22;1986;52.546;13.428;2022-11-21T10:48:54;-1.30;99.90
3944;DHT22;1986;52.546;13.428;2022-11-21T10:51:35;-1.20;99.90
3944;DHT22;1986;52.546;13.428;2022-11-21T10:54:07;-1.20;99.90
3944;DHT22;1986;52.546;13.428;2022-11-21T10:56:53;-1.20;99.90
3944;DHT22;1986;52.546;13.428;2022-11-21T10:59:26;-1.10;99.90
3944;DHT22;1986;52.546;13.428;2022-11-21T11:01:55;-1.10;99.90
3944;DHT22;1986;52.546;13.428;2022-11-21T11:04:26;-1.00;99.90
3944;DHT22;1986;52.546;13.428;2022-11-21T11:06:53;-1.00;99.90
3944;DHT22;1986;52.546;13.428;2022-11-21T11:09:28;-1.00;99.90
3944;DHT22;1986;52.546;13.428;2022-11-21T11:12:21;-0.90;99.90
3944;DHT22;1986;52.546;13.428;2022-11-21T11:14:53;-0.90;99.90
3944;DHT22;1986;52.546;13.428;2022-11-21T11:17:28;-0.90;99.90
3944;DHT22;1986;52.546;13.428;2022-11-21T11:20:00;-0.90;99.90
3944;DHT22;1986;52.546;13.428;2022-11-21T11:22:30;-1.00;99.90
3944;DHT22;1986;52.546;13.428;2022-11-21T11:24:57;-1.10;99.90
3944;DHT22;1986;52.546;13.428;2022-11-21T11:27:28;-1.10;99.90
3944;DHT22;1986;52.546;13.428;2022-11-21T11:30:04;-1.00;99.90
3944;DHT22;1986;52.546;13.428;2022-11-21T11:32:38;-1.00;99.90
3944;DHT22;1986;52.546;13.428;2022-11-21T11:35:15;-1.00;99.90
3944;DHT22;1986;52.546;13.428;2022-11-21T11:37:53;-1.10;99.90
3944;DHT22;1986;52.546;13.428;2022-11-21T11:40:29;-1.10;99.90
3944;DHT22;1986;52.546;13.428;2022-11-21T11:43:15;-1.10;99.90
3944;DHT22;1986;52.546;13.428;2022-11-21T11:46:21;-1.00;99.90
3944;DHT22;1986;52.546;13.428;2022-11-21T11:49:14;-0.90;99.90
3944;DHT22;1986;52.546;13.428;2022-11-21T11:51:46;-0.80;99.90
3944;DHT22;1986;52.546;13.428;2022-11-21T11:54:16;-0.80;99.90
3944;DHT22;1986;52.546;13.428;2022-11-21T11:56:45;-0.60;99.90
3944;DHT22;1986;52.546;13.428;2022-11-21T11:59:19;-0.50;99.90
3944;DHT22;1986;52.546;13.428;2022-11-21T12:01:51;-0.40;99.90
3944;DHT22;1986;52.546;13.428;2022-11-21T12:04:23;-0.50;99.90
3944;DHT22;1986;52.546;13.428;2022-11-21T12:06:53;-0.50;99.90
3944;DHT22;1986;52.546;13.428;2022-11-21T12:09:26;-0.50;99.90
3944;DHT22;1986;52.546;13.428;2022-11-21T12:12:04;-0.40;99.90
3944;DHT22;1986;52.546;13.428;2022-11-21T12:15:02;-0.50;99.90
3944;DHT22;1986;52.546;13.428;2022-11-21T12:18:08;-0.50;99.90
3944;DHT22;1986;52.546;13.428;2022-11-21T12:20:45;-0.40;99.90
3944;DHT22;1986;52.546;13.428;2022-11-21T12:23:14;-0.40;99.90
3944;DHT22;1986;52.546;13.428;2022-11-21T12:25:50;-0.30;99.90
3944;DHT22;1986;52.546;13.428;2022-11-21T12:28:25;-0.30;99.90
3944;DHT22;1986;52.546;13.428;2022-11-21T12:31:04;-0.20;99.90
3944;DHT22;1986;52.546;13.428;2022-11-21T12:33:37;-0.20;99.90
3944;DHT22;1986;52.546;13.428;2022-11-21T12:36:16;-0.20;99.90
3944;DHT22;1986;52.546;13.428;2022-11-21T12:41:54;-0.10;99.90
3944;DHT22;1986;52.546;13.428;2022-11-21T12:44:58;-0.20;99.90
3944;DHT22;1986;52.546;13.428;2022-11-21T12:47:44;-0.30;99.90
3944;DHT22;1986;52.546;13.428;2022-11-21T12:50:36;-0.30;99.90
3944;DHT22;1986;52.546;13.428;2022-11-21T12:53:30;-0.40;99.90
3944;DHT22;1986;52.546;13.428;2022-11-21T12:56:29;-0.40;99.90
3944;DHT22;1986;52.546;13.428;2022-11-21T12:58:59;-0.30;99.90
3944;DHT22;1986;52.546;13.428;2022-11-21T13:01:31;-0.30;99.90
3944;DHT22;1986;52.546;13.428;2022-11-21T13:04:03;-0.10;99.90
3944;DHT22;1986;52.546;13.428;2022-11-21T13:06:37;-0.10;99.90
3944;DHT22;1986;52.546;13.428;2022-11-21T13:09:08;-0.10;99.90
3944;DHT22;1986;52.546;13.428;2022-11-21T13:11:45;0.00;99.90
3944;DHT22;1986;52.546;13.428;2022-11-21T13:14:38;0.00;99.90
3944;DHT22;1986;52.546;13.428;2022-11-21T13:17:25;-0.20;99.90
3944;DHT22;1986;52.546;13.428;2022-11-21T13:19:57;-0.20;99.90
3944;DHT22;1986;52.546;13.428;2022-11-21T13:22:49;-0.40;99.90
3944;DHT22;1986;52.546;13.428;2022-11-21T13:25:41;-0.50;99.90
3944;DHT22;1986;52.546;13.428;2022-11-21T13:28:35;-0.60;99.90
3944;DHT22;1986;52.546;13.428;2022-11-21T13:31:25;-0.60;99.90
3944;DHT22;1986;52.546;13.428;2022-11-21T13:36:58;-0.70;99.90
3944;DHT22;1986;52.546;13.428;2022-11-21T13:39:29;-0.60;99.90
3944;DHT22;1986;52.546;13.428;2022-11-21T13:42:08;-0.50;99.90
3944;DHT22;1986;52.546;13.428;2022-11-21T13:44:54;-0.50;99.90
3944;DHT22;1986;52.546;13.428;2022-11-21T13:50:58;-0.50;99.90
3944;DHT22;1986;52.546;13.428;2022-11-21T13:53:50;-0.40;99.90
3944;DHT22;1986;52.546;13.428;2022-11-21T13:56:34;-0.40;99.90
3944;DHT22;1986;52.546;13.428;2022-11-21T13:59:18;-0.30;99.90
3944;DHT22;1986;52.546;13.428;2022-11-21T14:02:12;-0.30;99.90
3944;DHT22;1986;52.546;13.428;2022-11-21T14:05:15;-0.30;99.90
3944;DHT22;1986;52.546;13.428;2022-11-21T14:07:44;-0.30;99.90
3944;DHT22;1986;52.546;13.428;2022-11-21T14:10:29;-0.30;99.90
3944;DHT22;1986;52.546;13.428;2022-11-21T14:13:02;-0.60;99.90
3944;DHT22;1986;52.546;13.428;2022-11-21T14:15:34;-0.50;99.90
3944;DHT22;1986;52.546;13.428;2022-11-21T14:18:05;-0.50;99.90
3944;DHT22;1986;52.546;13.428;2022-11-21T14:20:47;-0.50;99.90
3944;DHT22;1986;52.546;13.428;2022-11-21T14:23:16;-0.50;99.90
3944;DHT22;1986;52.546;13.428;2022-11-21T14:25:49;-0.60;99.90
3944;DHT22;1986;52.546;13.428;2022-11-21T14:28:24;-0.70;99.90
3944;DHT22;1986;52.546;13.428;2022-11-21T14:30:56;-0.90;99.90
3944;DHT22;1986;52.546;13.428;2022-11-21T14:33:29;-0.90;99.90
3944;DHT22;1986;52.546;13.428;2022-11-21T14:36:02;-0.90;99.90
3944;DHT22;1986;52.546;13.428;2022-11-21T14:38:34;-0.90;99.90
3944;DHT22;1986;52.546;13.428;2022-11-21T14:44:19;-0.90;99.90
3944;DHT22;1986;52.546;13.428;2022-11-21T14:47:01;-1.10;99.90
3944;DHT22;1986;52.546;13.428;2022-11-21T14:49:31;-1.00;99.90
3944;DHT22;1986;52.546;13.428;2022-11-21T14:52:13;-1.10;99.90
3944;DHT22;1986;52.546;13.428;2022-11-21T14:54:45;-1.10;99.90
3944;DHT22;1986;52.546;13.428;2022-11-21T14:57:18;-1.10;99.90
3944;DHT22;1986;52.546;13.428;2022-11-21T14:59:50;-1.10;99.90
3944;DHT22;1986;52.546;13.428;2022-11-21T15:02:19;-1.10;99.90
3944;DHT22;1986;52.546;13.428;2022-11-21T15:04:48;-1.10;99.90
3944;DHT22;1986;52.546;13.428;2022-11-21T15:07:18;-1.00;99.90
3944;DHT22;1986;52.546;13.428;2022-11-21T15:09:45;-1.10;99.90
3944;DHT22;1986;52.546;13.428;2022-11-21T15:12:13;-1.00;99.90
3944;DHT22;1986;52.546;13.428;2022-11-21T15:14:50;-1.00;99.90
3944;DHT22;1986;52.546;13.428;2022-11-21T15:17:21;-1.00;99.90
3944;DHT22;1986;52.546;13.428;2022-11-21T15:20:06;-1.00;99.90
3944;DHT22;1986;52.546;13.428;2022-11-21T15:22:35;-1.00;99.90
3944;DHT22;1986;52.546;13.428;2022-11-21T15:25:08;-0.90;99.90
3944;DHT22;1986;52.546;13.428;2022-11-21T15:27:37;-0.90;99.90
3944;DHT22;1986;52.546;13.428;2022-11-21T15:30:25;-0.90;99.90
3944;DHT22;1986;52.546;13.428;2022-11-21T15:33:06;-1.10;99.90
3944;DHT22;1986;52.546;13.428;2022-11-21T15:35:54;-1.20;99.90
3944;DHT22;1986;52.546;13.428;2022-11-21T15:38:40;-1.10;99.90
3944;DHT22;1986;52.546;13.428;2022-11-21T15:41:26;-1.20;99.90
3944;DHT22;1986;52.546;13.428;2022-11-21T15:44:00;-1.20;99.90
3944;DHT22;1986;52.546;13.428;2022-11-21T15:46:41;-1.10;99.90
3944;DHT22;1986;52.546;13.428;2022-11-21T15:49:11;-1.10;99.90
3944;DHT22;1986;52.546;13.428;2022-11-21T15:51:43;-1.00;99.90
3944;DHT22;1986;52.546;13.428;2022-11-21T15:54:12;-1.10;99.90
3944;DHT22;1986;52.546;13.428;2022-11-21T15:56:43;-1.10;99.90
3944;DHT22;1986;52.546;13.428;2022-11-21T15:59:12;-1.10;99.90
3944;DHT22;1986;52.546;13.428;2022-11-21T16:01:41;-1.20;99.90
3944;DHT22;1986;52.546;13.428;2022-11-21T16:04:11;-1.20;99.90
3944;DHT22;1986;52.546;13.428;2022-11-21T16:06:38;-1.20;99.90
3944;DHT22;1986;52.546;13.428;2022-11-21T16:09:05;-1.10;99.90
3944;DHT22;1986;52.546;13.428;2022-11-21T16:11:35;-1.10;99.90
3944;DHT22;1986;52.546;13.428;2022-11-21T16:14:05;-1.10;99.90
3944;DHT22;1986;52.546;13.428;2022-11-21T16:16:35;-1.10;99.90
3944;DHT22;1986;52.546;13.428;2022-11-21T16:19:05;-1.00;99.90
3944;DHT22;1986;52.546;13.428;2022-11-21T16:21:34;-1.10;99.90
3944;DHT22;1986;52.546;13.428;2022-11-21T16:24:01;-1.10;99.90
3944;DHT22;1986;52.546;13.428;2022-11-21T16:26:28;-1.00;99.90
3944;DHT22;1986;52.546;13.428;2022-11-21T16:28:56;-1.00;99.90
3944;DHT22;1986;52.546;13.428;2022-11-21T16:31:26;-1.00;99.90
3944;DHT22;1986;52.546;13.428;2022-11-21T16:33:54;-1.00;99.90
3944;DHT22;1986;52.546;13.428;2022-11-21T16:36:25;-0.90;99.90
3944;DHT22;1986;52.546;13.428;2022-11-21T16:38:53;-0.90;99.90